createdAt,value
2023-05-10T00:00:20.059Z,26.60
2023-05-10T00:01:20.081Z,26.62
2023-05-10T00:02:20.118Z,26.63
2023-05-10T00:03:20.205Z,26.62
2023-05-10T00:04:20.186Z,26.62
2023-05-10T00:05:20.171Z,26.60
2023-05-10T00:06:20.148Z,26.62
2023-05-10T00:07:20.149Z,26.63
2023-05-10T00:08:20.192Z,26.60
2023-05-10T00:09:20.214Z,26.62
2023-05-10T00:10:20.234Z,26.62
2023-05-10T00:11:22.270Z,26.59
2023-05-10T00:12:20.218Z,26.62
2023-05-10T00:13:20.242Z,26.62
2023-05-10T00:14:20.175Z,26.59
2023-05-10T00:15:20.186Z,26.63
2023-05-10T00:16:20.283Z,26.62
2023-05-10T00:17:20.179Z,26.63
2023-05-10T00:18:20.206Z,26.59
2023-05-10T00:19:20.148Z,26.59
2023-05-10T00:20:20.138Z,26.59
2023-05-10T00:21:20.136Z,26.59
2023-05-10T00:22:20.151Z,26.59
2023-05-10T00:23:20.126Z,26.60
2023-05-10T00:24:20.140Z,26.62
2023-05-10T00:25:20.132Z,26.60
2023-05-10T00:26:20.117Z,26.59
2023-05-10T00:27:20.130Z,26.60
2023-05-10T00:28:20.132Z,26.60
2023-05-10T00:29:20.096Z,26.59
2023-05-10T00:30:20.081Z,26.56
2023-05-10T00:31:20.105Z,26.59
2023-05-10T00:32:20.170Z,26.58
2023-05-10T00:33:20.089Z,26.60
2023-05-10T00:34:20.096Z,26.58
2023-05-10T00:35:20.072Z,26.58
2023-05-10T00:36:20.036Z,26.58
2023-05-10T00:37:20.040Z,26.60
2023-05-10T00:38:20.037Z,26.58
2023-05-10T00:39:20.021Z,26.56
2023-05-10T00:40:20.039Z,26.58
2023-05-10T00:41:20.058Z,26.56
2023-05-10T00:42:20.006Z,26.59
2023-05-10T00:43:19.996Z,26.58
2023-05-10T00:44:19.987Z,26.58
2023-05-10T00:45:19.979Z,26.56
2023-05-10T00:46:20.067Z,26.55
2023-05-10T00:47:19.991Z,26.58
2023-05-10T00:48:19.979Z,26.58
2023-05-10T00:49:19.959Z,26.56
2023-05-10T00:50:19.974Z,26.54
2023-05-10T00:51:19.965Z,26.58
2023-05-10T00:52:19.931Z,26.55
2023-05-10T00:53:19.954Z,26.55
2023-05-10T00:54:19.945Z,26.55
2023-05-10T00:55:19.923Z,26.56
2023-05-10T00:56:19.922Z,26.55
2023-05-10T00:57:19.917Z,26.54
2023-05-10T00:58:19.895Z,26.55
2023-05-10T00:59:19.923Z,26.55
2023-05-10T01:00:19.875Z,26.55
2023-05-10T01:01:19.921Z,26.54
2023-05-10T01:02:19.945Z,26.54
2023-05-10T01:03:20.100Z,26.52
2023-05-10T01:04:19.847Z,26.56
2023-05-10T01:05:19.887Z,26.55
2023-05-10T01:06:19.857Z,26.54
2023-05-10T01:07:19.835Z,26.52
2023-05-10T01:08:19.851Z,26.54
2023-05-10T01:09:19.836Z,26.54
2023-05-10T01:10:19.830Z,26.52
2023-05-10T01:11:19.841Z,26.54
2023-05-10T01:12:19.908Z,26.52
2023-05-10T01:13:19.885Z,26.52
2023-05-10T01:14:19.781Z,26.54
2023-05-10T01:15:19.816Z,26.51
2023-05-10T01:16:19.804Z,26.54
2023-05-10T01:17:19.807Z,26.52
2023-05-10T01:18:19.797Z,26.52
2023-05-10T01:19:19.768Z,26.51
2023-05-10T01:20:19.886Z,26.55
2023-05-10T01:21:19.824Z,26.52
2023-05-10T01:22:19.755Z,26.52
2023-05-10T01:23:19.760Z,26.49
2023-05-10T01:24:19.772Z,26.49
2023-05-10T01:25:19.730Z,26.54
2023-05-10T01:26:19.705Z,26.54
2023-05-10T01:27:19.718Z,26.55
2023-05-10T01:28:19.696Z,26.51
2023-05-10T01:29:19.731Z,26.51
2023-05-10T01:31:19.758Z,26.54
2023-05-10T01:32:19.663Z,26.51
2023-05-10T01:33:19.684Z,26.51
2023-05-10T01:34:19.679Z,26.51
2023-05-10T01:35:19.663Z,26.51
2023-05-10T01:36:19.651Z,26.52
2023-05-10T01:37:19.631Z,26.49
2023-05-10T01:38:19.623Z,26.49
2023-05-10T01:39:19.643Z,26.48
2023-05-10T01:40:19.628Z,26.51
2023-05-10T01:41:19.700Z,26.51
2023-05-10T01:42:19.626Z,26.48
2023-05-10T01:43:19.612Z,26.48
2023-05-10T01:44:19.585Z,26.46
2023-05-10T01:45:19.597Z,26.49
2023-05-10T01:46:19.658Z,26.49
2023-05-10T01:47:19.578Z,26.51
2023-05-10T01:48:19.588Z,26.48
2023-05-10T01:49:19.569Z,26.51
2023-05-10T01:50:19.669Z,26.45
2023-05-10T01:51:19.560Z,26.51
2023-05-10T01:52:19.527Z,26.48
2023-05-10T01:53:19.519Z,26.46
2023-05-10T01:54:19.549Z,26.46
2023-05-10T01:55:19.576Z,26.48
2023-05-10T01:56:19.526Z,26.49
2023-05-10T01:57:19.497Z,26.49
2023-05-10T01:58:19.521Z,26.48
2023-05-10T01:59:19.536Z,26.46
2023-05-10T02:00:19.490Z,26.46
2023-05-10T02:01:19.547Z,26.49
2023-05-10T02:02:19.483Z,26.48
2023-05-10T02:03:19.516Z,26.48
2023-05-10T02:04:19.492Z,26.48
2023-05-10T02:05:19.445Z,26.46
2023-05-10T02:06:19.449Z,26.46
2023-05-10T02:07:19.459Z,26.46
2023-05-10T02:08:19.431Z,26.46
2023-05-10T02:09:19.419Z,26.45
2023-05-10T02:10:19.524Z,26.46
2023-05-10T02:11:19.407Z,26.46
2023-05-10T02:12:19.400Z,26.48
2023-05-10T02:13:19.456Z,26.44
2023-05-10T02:14:19.393Z,26.46
2023-05-10T02:15:19.410Z,26.46
2023-05-10T02:16:19.515Z,26.45
2023-05-10T02:17:19.368Z,26.44
2023-05-10T02:18:19.400Z,26.46
2023-05-10T02:19:19.353Z,26.45
2023-05-10T02:20:19.556Z,26.44
2023-05-10T02:21:19.336Z,26.44
2023-05-10T02:22:19.401Z,26.45
2023-05-10T02:23:19.318Z,26.44
2023-05-10T02:24:19.335Z,26.44
2023-05-10T02:25:19.322Z,26.44
2023-05-10T02:26:19.328Z,26.44
2023-05-10T02:27:19.307Z,26.44
2023-05-10T02:28:19.312Z,26.42
2023-05-10T02:29:19.306Z,26.42
2023-05-10T02:30:19.280Z,26.41
2023-05-10T02:31:19.358Z,26.42
2023-05-10T02:32:19.281Z,26.42
2023-05-10T02:33:19.256Z,26.42
2023-05-10T02:34:19.345Z,26.42
2023-05-10T02:35:19.248Z,26.41
2023-05-10T02:36:19.280Z,26.42
2023-05-10T02:37:19.269Z,26.41
2023-05-10T02:38:19.232Z,26.42
2023-05-10T02:39:19.246Z,26.42
2023-05-10T02:40:19.385Z,26.42
2023-05-10T02:41:19.221Z,26.41
2023-05-10T02:42:19.219Z,26.42
2023-05-10T02:43:19.212Z,26.41
2023-05-10T02:44:19.199Z,26.41
2023-05-10T02:45:19.184Z,26.41
2023-05-10T02:46:19.218Z,26.41
2023-05-10T02:47:19.165Z,26.41
2023-05-10T02:48:19.174Z,26.42
2023-05-10T02:49:19.182Z,26.38
2023-05-10T02:50:19.226Z,26.42
2023-05-10T02:51:19.215Z,26.41
2023-05-10T02:52:19.161Z,26.38
2023-05-10T02:53:19.141Z,26.39
2023-05-10T02:54:19.163Z,26.41
2023-05-10T02:55:19.156Z,26.37
2023-05-10T02:56:19.119Z,26.38
2023-05-10T02:57:19.156Z,26.39
2023-05-10T02:58:19.139Z,26.37
2023-05-10T02:59:19.124Z,26.38
2023-05-10T03:00:19.138Z,26.37
2023-05-10T03:01:19.149Z,26.38
2023-05-10T03:02:19.139Z,26.38
2023-05-10T03:03:19.140Z,26.38
2023-05-10T03:04:19.214Z,26.37
2023-05-10T03:05:19.132Z,26.38
2023-05-10T03:06:19.142Z,26.35
2023-05-10T03:07:19.152Z,26.35
2023-05-10T03:08:19.184Z,26.35
2023-05-10T03:09:19.166Z,26.34
2023-05-10T03:10:19.364Z,26.35
2023-05-10T03:11:19.149Z,26.38
2023-05-10T03:12:19.159Z,26.35
2023-05-10T03:13:19.236Z,26.38
2023-05-10T03:14:19.191Z,26.38
2023-05-10T03:15:19.195Z,26.35
2023-05-10T03:16:19.230Z,26.37
2023-05-10T03:17:19.184Z,26.35
2023-05-10T03:18:19.202Z,26.37
2023-05-10T03:19:19.222Z,26.38
2023-05-10T03:20:19.218Z,26.37
2023-05-10T03:21:19.219Z,26.35
2023-05-10T03:22:19.224Z,26.37
2023-05-10T03:23:19.235Z,26.37
2023-05-10T03:24:19.215Z,26.35
2023-05-10T03:25:19.216Z,26.37
2023-05-10T03:26:19.276Z,26.35
2023-05-10T03:27:19.221Z,26.35
2023-05-10T03:28:19.282Z,26.38
2023-05-10T03:29:19.281Z,26.38
2023-05-10T03:30:19.418Z,26.32
2023-05-10T03:31:19.266Z,26.35
2023-05-10T03:32:19.222Z,26.35
2023-05-10T03:33:19.226Z,26.35
2023-05-10T03:34:19.232Z,26.34
2023-05-10T03:35:19.227Z,26.35
2023-05-10T03:36:19.274Z,26.35
2023-05-10T03:37:19.279Z,26.34
2023-05-10T03:38:19.317Z,26.35
2023-05-10T03:39:19.346Z,26.32
2023-05-10T03:40:19.539Z,26.34
2023-05-10T03:41:19.362Z,26.31
2023-05-10T03:42:19.419Z,26.32
2023-05-10T03:43:19.432Z,26.34
2023-05-10T03:44:19.428Z,26.34
2023-05-10T03:45:19.490Z,26.31
2023-05-10T03:46:19.443Z,26.34
2023-05-10T03:47:19.450Z,26.34
2023-05-10T03:48:19.437Z,26.34
2023-05-10T03:49:19.452Z,26.32
2023-05-10T03:50:19.603Z,26.34
2023-05-10T03:51:19.484Z,26.31
2023-05-10T03:52:19.529Z,26.32
2023-05-10T03:53:19.533Z,26.32
2023-05-10T03:54:19.543Z,26.32
2023-05-10T03:55:19.540Z,26.30
2023-05-10T03:56:19.539Z,26.32
2023-05-10T03:57:19.523Z,26.31
2023-05-10T03:58:19.539Z,26.30
2023-05-10T03:59:19.546Z,26.32
2023-05-10T04:00:19.714Z,26.30
2023-05-10T04:01:19.547Z,26.30
2023-05-10T04:02:19.589Z,26.30
2023-05-10T04:03:19.704Z,26.34
2023-05-10T04:04:19.959Z,26.30
2023-05-10T04:05:19.660Z,26.30
2023-05-10T04:06:19.711Z,26.31
2023-05-10T04:07:19.658Z,26.30
2023-05-10T04:08:19.668Z,26.30
2023-05-10T04:09:19.723Z,26.31
2023-05-10T04:10:19.766Z,26.28
2023-05-10T04:11:19.693Z,26.31
2023-05-10T04:12:19.692Z,26.30
2023-05-10T04:13:19.742Z,26.32
2023-05-10T04:14:19.701Z,26.28
2023-05-10T04:15:19.717Z,26.28
2023-05-10T04:16:19.782Z,26.27
2023-05-10T04:17:19.751Z,26.28
2023-05-10T04:18:19.704Z,26.31
2023-05-10T04:19:19.822Z,26.31
2023-05-10T04:20:19.767Z,26.30
2023-05-10T04:21:19.694Z,26.28
2023-05-10T04:22:19.722Z,26.27
2023-05-10T04:23:19.699Z,26.28
2023-05-10T04:24:19.705Z,26.30
2023-05-10T04:25:19.702Z,26.30
2023-05-10T04:26:19.693Z,26.31
2023-05-10T04:27:19.705Z,26.28
2023-05-10T04:28:19.744Z,26.28
2023-05-10T04:29:19.695Z,26.30
2023-05-10T04:30:19.692Z,26.28
2023-05-10T04:31:19.828Z,26.28
2023-05-10T04:32:19.700Z,26.25
2023-05-10T04:33:19.696Z,26.28
2023-05-10T04:34:20.128Z,26.28
2023-05-10T04:35:19.721Z,26.28
2023-05-10T04:36:19.717Z,26.31
2023-05-10T04:37:19.714Z,26.30
2023-05-10T04:38:19.722Z,26.28
2023-05-10T04:39:19.728Z,26.28
2023-05-10T04:40:19.745Z,26.27
2023-05-10T04:41:19.741Z,26.30
2023-05-10T04:42:19.749Z,26.27
2023-05-10T04:43:19.764Z,26.28
2023-05-10T04:44:19.783Z,26.27
2023-05-10T04:45:19.769Z,26.30
2023-05-10T04:46:19.817Z,26.28
2023-05-10T04:47:19.777Z,26.28
2023-05-10T04:48:19.751Z,26.28
2023-05-10T04:49:19.754Z,26.27
2023-05-10T04:50:19.787Z,26.27
2023-05-10T04:51:19.797Z,26.25
2023-05-10T04:52:19.794Z,26.24
2023-05-10T04:53:19.799Z,26.27
2023-05-10T04:54:19.795Z,26.30
2023-05-10T04:55:19.782Z,26.28
2023-05-10T04:56:19.801Z,26.27
2023-05-10T04:57:19.824Z,26.27
2023-05-10T04:58:19.818Z,26.30
2023-05-10T04:59:19.836Z,26.25
2023-05-10T05:00:19.830Z,26.28
2023-05-10T05:01:19.854Z,26.27
2023-05-10T05:02:19.852Z,26.27
2023-05-10T05:03:19.978Z,26.28
2023-05-10T05:04:19.836Z,26.27
2023-05-10T05:05:19.858Z,26.27
2023-05-10T05:06:19.841Z,26.28
2023-05-10T05:07:19.865Z,26.25
2023-05-10T05:08:19.844Z,26.27
2023-05-10T05:09:19.875Z,26.28
2023-05-10T05:10:20.122Z,26.30
2023-05-10T05:11:19.866Z,26.28
2023-05-10T05:12:19.870Z,26.28
2023-05-10T05:13:19.927Z,26.27
2023-05-10T05:14:19.870Z,26.28
2023-05-10T05:15:19.880Z,26.28
2023-05-10T05:16:19.886Z,26.27
2023-05-10T05:17:19.870Z,26.28
2023-05-10T05:18:19.898Z,26.27
2023-05-10T05:19:19.905Z,26.27
2023-05-10T05:20:20.007Z,26.27
2023-05-10T05:21:19.960Z,26.28
2023-05-10T05:22:19.909Z,26.30
2023-05-10T05:23:19.924Z,26.31
2023-05-10T05:24:19.933Z,26.27
2023-05-10T05:25:19.934Z,26.27
2023-05-10T05:26:19.955Z,26.28
2023-05-10T05:27:19.956Z,26.30
2023-05-10T05:28:19.974Z,26.31
2023-05-10T05:29:19.977Z,26.30
2023-05-10T05:30:20.011Z,26.24
2023-05-10T05:31:20.081Z,26.24
2023-05-10T05:32:20.020Z,26.23
2023-05-10T05:33:20.029Z,26.13
2023-05-10T05:34:20.155Z,26.20
2023-05-10T05:35:20.055Z,26.24
2023-05-10T05:36:20.042Z,26.27
2023-05-10T05:37:20.044Z,26.31
2023-05-10T05:38:20.073Z,26.35
2023-05-10T05:39:20.044Z,26.41
2023-05-10T05:40:20.036Z,26.41
2023-05-10T05:41:20.074Z,26.46
2023-05-10T05:42:20.083Z,26.51
2023-05-10T05:43:20.165Z,26.55
2023-05-10T05:44:20.236Z,26.62
2023-05-10T05:45:20.426Z,26.65
2023-05-10T05:46:20.353Z,26.71
2023-05-10T05:47:20.400Z,26.75
2023-05-10T05:48:20.447Z,26.81
2023-05-10T05:49:20.686Z,26.83
2023-05-10T05:50:20.529Z,26.88
2023-05-10T05:51:20.584Z,26.88
2023-05-10T05:52:20.619Z,26.96
2023-05-10T05:53:20.681Z,26.98
2023-05-10T05:54:21.141Z,27.02
2023-05-10T05:55:20.758Z,27.05
2023-05-10T05:56:20.789Z,27.06
2023-05-10T05:57:20.814Z,27.10
2023-05-10T05:58:20.870Z,27.13
2023-05-10T05:59:20.893Z,27.14
2023-05-10T06:00:20.936Z,27.12
2023-05-10T06:01:21.014Z,27.02
2023-05-10T06:02:21.096Z,26.92
2023-05-10T06:03:21.220Z,26.79
2023-05-10T06:04:21.137Z,26.71
2023-05-10T06:05:21.080Z,26.58
2023-05-10T06:06:21.104Z,26.46
2023-05-10T06:07:21.117Z,26.38
2023-05-10T06:08:21.149Z,26.24
2023-05-10T06:09:21.162Z,26.21
2023-05-10T06:10:21.192Z,26.17
2023-05-10T06:11:21.221Z,26.17
2023-05-10T06:12:21.260Z,26.23
2023-05-10T06:13:21.280Z,26.23
2023-05-10T06:14:21.277Z,26.27
2023-05-10T06:15:21.678Z,26.31
2023-05-10T06:16:21.327Z,26.38
2023-05-10T06:17:21.291Z,26.45
2023-05-10T06:18:21.300Z,26.49
2023-05-10T06:19:21.670Z,26.58
2023-05-10T06:20:21.669Z,26.63
2023-05-10T06:21:21.492Z,26.69
2023-05-10T06:22:21.551Z,26.72
2023-05-10T06:23:21.624Z,26.81
2023-05-10T06:24:21.660Z,26.86
2023-05-10T06:25:21.709Z,26.89
2023-05-10T06:26:21.742Z,26.93
2023-05-10T06:27:21.785Z,26.99
2023-05-10T06:28:21.806Z,27.02
2023-05-10T06:29:21.848Z,27.09
2023-05-10T06:30:22.199Z,27.12
2023-05-10T06:31:21.934Z,27.10
2023-05-10T06:32:21.957Z,27.17
2023-05-10T06:33:22.020Z,27.14
2023-05-10T06:34:22.183Z,27.17
2023-05-10T06:35:22.042Z,27.16
2023-05-10T06:36:22.072Z,27.23
2023-05-10T06:37:22.063Z,27.26
2023-05-10T06:38:22.095Z,27.33
2023-05-10T06:39:22.131Z,27.39
2023-05-10T06:40:22.132Z,27.42
2023-05-10T06:41:24.604Z,27.44
2023-05-10T06:42:22.367Z,27.49
2023-05-10T06:43:22.412Z,27.52
2023-05-10T06:44:22.415Z,27.57
2023-05-10T06:45:22.424Z,27.58
2023-05-10T06:46:22.431Z,27.58
2023-05-10T06:47:22.412Z,27.63
2023-05-10T06:48:22.567Z,27.67
2023-05-10T06:49:22.415Z,27.67
2023-05-10T06:50:22.428Z,27.70
2023-05-10T06:51:22.424Z,27.68
2023-05-10T06:52:22.419Z,27.73
2023-05-10T06:53:22.404Z,27.74
2023-05-10T06:54:22.400Z,27.73
2023-05-10T06:55:22.410Z,27.75
2023-05-10T06:56:22.446Z,27.77
2023-05-10T06:57:31.224Z,27.77
2023-05-10T06:58:23.411Z,27.79
2023-05-10T06:59:23.236Z,27.81
2023-05-10T07:00:22.393Z,27.81
2023-05-10T07:01:22.443Z,27.83
2023-05-10T07:02:22.418Z,27.83
2023-05-10T07:03:22.466Z,27.84
2023-05-10T07:04:22.406Z,27.84
2023-05-10T07:05:22.429Z,27.85
2023-05-10T07:06:32.774Z,27.88
2023-05-10T07:07:23.327Z,27.88
2023-05-10T07:08:22.341Z,27.87
2023-05-10T07:09:22.329Z,27.85
2023-05-10T07:10:22.334Z,27.90
2023-05-10T07:11:22.362Z,27.88
2023-05-10T07:12:22.338Z,27.91
2023-05-10T07:13:22.349Z,27.91
2023-05-10T07:14:22.294Z,27.93
2023-05-10T07:15:22.289Z,27.94
2023-05-10T07:16:22.338Z,27.98
2023-05-10T07:17:22.331Z,27.98
2023-05-10T07:18:22.376Z,27.98
2023-05-10T07:19:22.357Z,28.03
2023-05-10T07:20:22.421Z,28.05
2023-05-10T07:21:22.500Z,28.07
2023-05-10T07:22:22.534Z,28.08
2023-05-10T07:23:22.594Z,28.11
2023-05-10T07:24:22.662Z,28.04
2023-05-10T07:25:22.727Z,28.07
2023-05-10T07:26:22.793Z,28.05
2023-05-10T07:27:22.834Z,28.04
2023-05-10T07:28:22.871Z,28.01
2023-05-10T07:29:22.936Z,27.97
2023-05-10T07:30:22.969Z,27.91
2023-05-10T07:31:22.917Z,27.94
2023-05-10T07:32:23.274Z,27.90
2023-05-10T07:33:23.004Z,27.90
2023-05-10T07:34:22.972Z,27.90
2023-05-10T07:35:23.013Z,27.91
2023-05-10T07:36:23.046Z,27.91
2023-05-10T07:37:23.065Z,27.93
2023-05-10T07:38:23.105Z,27.91
2023-05-10T07:39:27.476Z,27.91
2023-05-10T07:40:24.150Z,27.91
2023-05-10T07:41:23.145Z,27.90
2023-05-10T07:42:23.145Z,27.88
2023-05-10T07:43:23.229Z,27.87
2023-05-10T07:44:23.124Z,27.87
2023-05-10T07:45:23.137Z,27.87
2023-05-10T07:46:23.214Z,27.87
2023-05-10T07:47:23.122Z,27.88
2023-05-10T07:48:23.100Z,27.88
2023-05-10T07:49:23.192Z,27.83
2023-05-10T07:50:23.203Z,27.83
2023-05-10T07:51:23.097Z,27.84
2023-05-10T07:52:23.097Z,27.84
2023-05-10T07:53:23.067Z,27.84
2023-05-10T07:54:23.057Z,27.83
2023-05-10T07:55:23.207Z,27.81
2023-05-10T07:56:23.041Z,27.79
2023-05-10T07:57:23.016Z,27.80
2023-05-10T07:58:23.028Z,27.77
2023-05-10T07:59:23.011Z,27.77
2023-05-10T08:00:23.197Z,27.75
2023-05-10T08:01:23.012Z,27.71
2023-05-10T08:02:23.066Z,27.73
2023-05-10T08:03:23.012Z,27.70
2023-05-10T08:04:23.017Z,27.70
2023-05-10T08:05:23.005Z,27.67
2023-05-10T08:06:22.969Z,27.67
2023-05-10T08:07:22.956Z,27.65
2023-05-10T08:08:22.998Z,27.64
2023-05-10T08:09:22.981Z,27.65
2023-05-10T08:10:22.957Z,27.61
2023-05-10T08:11:22.938Z,27.61
2023-05-10T08:12:22.941Z,27.60
2023-05-10T08:13:22.951Z,27.58
2023-05-10T08:14:22.930Z,27.57
2023-05-10T08:15:23.235Z,27.60
2023-05-10T08:16:23.013Z,27.56
2023-05-10T08:17:24.825Z,27.54
2023-05-10T08:18:23.055Z,27.54
2023-05-10T08:19:22.947Z,27.56
2023-05-10T08:20:23.227Z,27.53
2023-05-10T08:21:22.996Z,27.54
2023-05-10T08:22:22.979Z,27.50
2023-05-10T08:23:22.991Z,27.53
2023-05-10T08:24:23.035Z,27.52
2023-05-10T08:25:23.014Z,27.47
2023-05-10T08:26:23.054Z,27.50
2023-05-10T08:27:23.056Z,27.49
2023-05-10T08:28:23.087Z,27.49
2023-05-10T08:29:23.112Z,27.49
2023-05-10T08:30:23.134Z,27.49
2023-05-10T08:31:23.150Z,27.49
2023-05-10T08:32:23.150Z,27.49
2023-05-10T08:33:23.186Z,27.49
2023-05-10T08:34:23.417Z,27.47
2023-05-10T08:35:23.213Z,27.46
2023-05-10T08:36:23.253Z,27.49
2023-05-10T08:37:23.262Z,27.47
2023-05-10T08:38:23.315Z,27.46
2023-05-10T08:39:29.780Z,27.46
2023-05-10T08:40:24.315Z,27.49
2023-05-10T08:41:23.366Z,27.46
2023-05-10T08:42:23.264Z,27.50
2023-05-10T08:43:23.280Z,27.50
2023-05-10T08:44:23.279Z,27.52
2023-05-10T08:45:23.759Z,27.54
2023-05-10T08:46:24.229Z,27.57
2023-05-10T08:47:23.296Z,27.58
2023-05-10T08:48:23.253Z,27.63
2023-05-10T08:49:23.255Z,27.64
2023-05-10T08:50:23.240Z,27.63
2023-05-10T08:51:23.230Z,27.67
2023-05-10T08:52:23.224Z,27.67
2023-05-10T08:53:23.228Z,27.68
2023-05-10T08:54:23.237Z,27.70
2023-05-10T08:55:23.232Z,27.71
2023-05-10T08:56:23.218Z,27.75
2023-05-10T08:57:23.185Z,27.75
2023-05-10T08:58:23.220Z,27.75
2023-05-10T08:59:23.186Z,27.77
2023-05-10T09:00:23.181Z,27.75
2023-05-10T09:01:23.319Z,27.79
2023-05-10T09:02:23.174Z,27.80
2023-05-10T09:03:23.239Z,27.83
2023-05-10T09:04:23.198Z,27.85
2023-05-10T09:05:23.184Z,27.87
2023-05-10T09:06:23.140Z,27.88
2023-05-10T09:07:23.137Z,27.87
2023-05-10T09:08:23.128Z,27.87
2023-05-10T09:09:23.110Z,27.90
2023-05-10T09:10:23.228Z,27.91
2023-05-10T09:11:23.103Z,27.93
2023-05-10T09:12:23.118Z,27.93
2023-05-10T09:13:23.103Z,27.91
2023-05-10T09:14:23.082Z,27.88
2023-05-10T09:15:23.248Z,27.90
2023-05-10T09:16:23.176Z,27.90
2023-05-10T09:17:23.147Z,27.93
2023-05-10T09:18:23.101Z,27.93
2023-05-10T09:19:23.083Z,27.93
2023-05-10T09:20:23.240Z,27.93
2023-05-10T09:21:23.143Z,27.90
2023-05-10T09:22:23.201Z,27.93
2023-05-10T09:23:23.221Z,27.93
2023-05-10T09:24:23.254Z,27.94
2023-05-10T09:25:23.754Z,27.94
2023-05-10T09:26:23.352Z,27.80
2023-05-10T09:27:23.323Z,27.83
2023-05-10T09:28:23.332Z,27.81
2023-05-10T09:29:23.286Z,27.83
2023-05-10T09:30:23.740Z,27.80
2023-05-10T09:31:23.567Z,27.79
2023-05-10T09:32:23.344Z,27.71
2023-05-10T09:33:23.296Z,27.68
2023-05-10T09:34:23.301Z,27.65
2023-05-10T09:35:23.293Z,27.67
2023-05-10T09:36:23.735Z,27.65
2023-05-10T09:37:23.316Z,27.64
2023-05-10T09:38:23.316Z,27.67
2023-05-10T09:39:23.316Z,27.64
2023-05-10T09:40:23.339Z,27.64
2023-05-10T09:41:23.337Z,27.64
2023-05-10T09:42:23.315Z,27.64
2023-05-10T09:43:23.344Z,27.67
2023-05-10T09:44:23.347Z,27.65
2023-05-10T09:45:23.758Z,27.67
2023-05-10T09:46:23.396Z,27.67
2023-05-10T09:47:23.436Z,27.64
2023-05-10T09:48:23.373Z,27.68
2023-05-10T09:49:23.357Z,27.70
2023-05-10T09:50:23.759Z,27.73
2023-05-10T09:51:23.362Z,27.75
2023-05-10T09:52:23.365Z,27.77
2023-05-10T09:53:23.357Z,27.77
2023-05-10T09:54:23.358Z,27.71
2023-05-10T09:55:23.391Z,27.73
2023-05-10T09:56:23.367Z,27.75
2023-05-10T09:57:23.343Z,27.75
2023-05-10T09:58:23.367Z,27.75
2023-05-10T09:59:23.348Z,27.77
2023-05-10T10:00:23.357Z,27.79
2023-05-10T10:01:23.412Z,27.77
2023-05-10T10:02:23.380Z,27.77
2023-05-10T10:03:23.376Z,27.80
2023-05-10T10:04:23.354Z,27.77
2023-05-10T10:05:23.333Z,27.81
2023-05-10T10:06:30.027Z,27.83
2023-05-10T10:07:24.349Z,27.81
2023-05-10T10:08:23.331Z,27.83
2023-05-10T10:09:23.312Z,27.77
2023-05-10T10:10:23.311Z,27.64
2023-05-10T10:11:23.310Z,27.57
2023-05-10T10:12:23.296Z,27.46
2023-05-10T10:13:23.293Z,27.33
2023-05-10T10:14:23.287Z,27.17
2023-05-10T10:15:23.514Z,27.02
2023-05-10T10:16:23.857Z,26.93
2023-05-10T10:17:23.314Z,26.76
2023-05-10T10:18:23.251Z,26.75
2023-05-10T10:19:23.244Z,26.74
2023-05-10T10:20:23.244Z,26.71
2023-05-10T10:21:23.281Z,26.63
2023-05-10T10:22:23.232Z,26.71
2023-05-10T10:23:23.273Z,26.69
2023-05-10T10:24:23.294Z,26.72
2023-05-10T10:25:23.388Z,26.66
2023-05-10T10:26:23.773Z,26.74
2023-05-10T10:27:23.490Z,26.72
2023-05-10T10:28:24.018Z,26.63
2023-05-10T10:29:23.558Z,26.59
2023-05-10T10:30:23.531Z,26.58
2023-05-10T10:31:23.617Z,26.59
2023-05-10T10:32:23.548Z,26.59
2023-05-10T10:33:28.479Z,26.58
2023-05-10T10:34:24.511Z,26.60
2023-05-10T10:35:23.521Z,26.60
2023-05-10T10:36:23.797Z,26.60
2023-05-10T10:37:23.503Z,26.63
2023-05-10T10:38:23.494Z,26.65
2023-05-10T10:39:23.489Z,26.63
2023-05-10T10:40:23.479Z,26.65
2023-05-10T10:41:23.474Z,26.68
2023-05-10T10:42:23.464Z,26.62
2023-05-10T10:43:23.447Z,26.62
2023-05-10T10:44:23.506Z,26.66
2023-05-10T10:45:23.435Z,26.62
2023-05-10T10:46:23.474Z,26.55
2023-05-10T10:47:23.466Z,26.54
2023-05-10T10:48:23.412Z,26.52
2023-05-10T10:49:23.443Z,26.49
2023-05-10T10:50:23.410Z,26.45
2023-05-10T10:51:23.424Z,26.46
2023-05-10T10:52:23.399Z,26.45
2023-05-10T10:53:23.447Z,26.44
2023-05-10T10:54:23.390Z,26.42
2023-05-10T10:55:23.396Z,26.42
2023-05-10T10:56:23.428Z,26.38
2023-05-10T10:57:23.427Z,26.41
2023-05-10T10:58:23.441Z,26.38
2023-05-10T10:59:23.431Z,26.38
2023-05-10T11:00:23.446Z,26.39
2023-05-10T11:01:23.517Z,26.41
2023-05-10T11:02:23.525Z,26.39
2023-05-10T11:03:23.486Z,26.39
2023-05-10T11:04:23.549Z,26.39
2023-05-10T11:05:23.505Z,26.41
2023-05-10T11:06:23.788Z,26.38
2023-05-10T11:07:23.524Z,26.37
2023-05-10T11:08:23.543Z,26.34
2023-05-10T11:09:23.555Z,26.31
2023-05-10T11:10:23.575Z,26.31
2023-05-10T11:11:23.596Z,26.27
2023-05-10T11:12:23.661Z,26.17
2023-05-10T11:13:23.633Z,26.01
2023-05-10T11:14:23.693Z,26.00
2023-05-10T11:15:23.695Z,25.98
2023-05-10T11:16:23.734Z,25.97
2023-05-10T11:17:23.857Z,25.93
2023-05-10T11:18:23.776Z,25.95
2023-05-10T11:19:23.798Z,25.97
2023-05-10T11:20:23.825Z,25.97
2023-05-10T11:21:23.855Z,26.01
2023-05-10T11:22:23.891Z,26.04
2023-05-10T11:23:23.909Z,26.07
2023-05-10T11:24:23.915Z,26.13
2023-05-10T11:25:23.935Z,26.17
2023-05-10T11:26:23.963Z,26.24
2023-05-10T11:27:23.948Z,26.28
2023-05-10T11:28:23.976Z,26.31
2023-05-10T11:29:23.980Z,26.35
2023-05-10T11:30:23.972Z,26.28
2023-05-10T11:31:24.054Z,26.23
2023-05-10T11:32:24.117Z,26.08
2023-05-10T11:33:24.082Z,25.98
2023-05-10T11:34:24.066Z,25.87
2023-05-10T11:35:24.118Z,25.70
2023-05-10T11:36:24.203Z,25.57
2023-05-10T11:37:24.233Z,25.40
2023-05-10T11:38:24.288Z,25.29
2023-05-10T11:39:24.330Z,25.25
2023-05-10T11:40:24.393Z,25.26
2023-05-10T11:41:24.460Z,25.29
2023-05-10T11:42:24.488Z,25.36
2023-05-10T11:43:24.556Z,25.41
2023-05-10T11:44:24.586Z,25.47
2023-05-10T11:45:24.645Z,25.53
2023-05-10T11:46:24.676Z,25.59
2023-05-10T11:47:24.679Z,25.66
2023-05-10T11:48:24.729Z,25.74
2023-05-10T11:49:24.720Z,25.79
2023-05-10T11:50:24.768Z,25.85
2023-05-10T11:51:24.780Z,25.91
2023-05-10T11:52:24.785Z,25.98
2023-05-10T11:53:25.935Z,26.05
2023-05-10T11:54:24.831Z,26.08
2023-05-10T11:55:24.829Z,26.11
2023-05-10T11:56:24.885Z,26.18
2023-05-10T11:57:24.848Z,26.25
2023-05-10T11:58:24.857Z,26.25
2023-05-10T11:59:24.850Z,26.31
2023-05-10T12:00:24.852Z,26.35
2023-05-10T12:01:24.844Z,26.37
2023-05-10T12:02:24.921Z,26.41
2023-05-10T12:03:24.942Z,26.41
2023-05-10T12:04:24.892Z,26.44
2023-05-10T12:05:24.865Z,26.49
2023-05-10T12:06:25.313Z,26.51
2023-05-10T12:07:24.896Z,26.52
2023-05-10T12:08:24.919Z,26.55
2023-05-10T12:09:39.448Z,26.56
2023-05-10T12:10:25.930Z,26.55
2023-05-10T12:11:25.311Z,26.59
2023-05-10T12:12:24.910Z,26.60
2023-05-10T12:13:24.912Z,26.60
2023-05-10T12:14:24.954Z,26.63
2023-05-10T12:15:24.880Z,26.65
2023-05-10T12:16:25.361Z,26.63
2023-05-10T12:17:24.882Z,26.66
2023-05-10T12:18:24.910Z,26.71
2023-05-10T12:19:24.931Z,26.68
2023-05-10T12:20:24.972Z,26.69
2023-05-10T12:21:25.037Z,26.69
2023-05-10T12:22:25.108Z,26.71
2023-05-10T12:23:25.144Z,26.72
2023-05-10T12:24:25.206Z,26.72
2023-05-10T12:25:25.273Z,26.75
2023-05-10T12:26:25.336Z,26.74
2023-05-10T12:27:25.405Z,26.76
2023-05-10T12:28:25.465Z,26.75
2023-05-10T12:29:25.531Z,26.74
2023-05-10T12:30:25.600Z,26.76
2023-05-10T12:31:25.778Z,26.74
2023-05-10T12:32:25.759Z,26.75
2023-05-10T12:33:25.793Z,26.75
2023-05-10T12:34:25.828Z,26.78
2023-05-10T12:35:25.892Z,26.78
2023-05-10T12:36:25.963Z,26.78
2023-05-10T12:37:26.017Z,26.79
2023-05-10T12:38:26.108Z,26.79
2023-05-10T12:39:26.143Z,26.78
2023-05-10T12:40:26.194Z,26.79
2023-05-10T12:41:26.311Z,26.79
2023-05-10T12:42:26.334Z,26.79
2023-05-10T12:43:26.405Z,26.78
2023-05-10T12:44:26.459Z,26.81
2023-05-10T12:45:26.516Z,26.81
2023-05-10T12:46:26.683Z,26.82
2023-05-10T12:47:26.718Z,26.81
2023-05-10T12:48:26.693Z,26.85
2023-05-10T12:49:26.731Z,26.81
2023-05-10T12:50:26.816Z,26.82
2023-05-10T12:51:26.865Z,26.81
2023-05-10T12:52:26.925Z,26.83
2023-05-10T12:53:27.017Z,26.82